Aérodrome :
LOGIN :

S'inscrire | Disclaimer

   EN    FR    IT 

 










Légende :    VFR   VFR Marginal   IFR   IFR Intensif   IFR Très Intensif
Visi : 
Plafond : 
>= 8 km
>= 3000ft
5 à 8 km
1000 à 3000 ft
1500m à 5 km
500 à 1000 ft
800 à 1500m
200 à 500 ft
< 800m
< 200 ft
Symboles :   Orages  Brouillard  Fortes neiges  Fortes précipitations  Vent > 20 kt
SIGMETs :   Divers  Orages  Givrage  Turbulence  Onde Orograph.  Cendres Volcan.






- Altitude de l'aérodrome : 142 ft
- Code IATA : FLR


LIRQ - Firenze Amerigo Vespucci

DERNIER METAR :
  • 070050Z VRB02KT 7000 -RA BKN025 10/09 Q1020

METARs EXPIRÉS :
  • 070020Z 21002KT 8000 BKN025 09/09 Q1020
  • 062350Z 02002KT 8000 SCT030 BKN060 09/09 Q1020
  • 062320Z 31002KT 8000 BKN030 09/09 Q1020
  • 062250Z VRB01KT 8000 BKN030 10/09 Q1021

TAF TAF LIRQ
Valide du 07 à 00h jusqu'au 08 à 00h UTC


062300Z 0700/0724 VRB05KT 6000 SCT020
TEMPO 0702/0707 2000 BCFG



MET'MAP, la Météo Aéronautique d'un coup d'oeil ! - Copyright ORBIFLY Décembre 2007 - Disclaimer

ORBIFLY MET'MAP TEAM :

Programmation & Développement : Alexandra Zaïnal
Sur une idée originale de : Baudouin d'Aumeries
Assistance à la programmation : Marc-Olivier Méhu
Soutien technique & logistique : Manuel Goepfert

Contact : metmap@orbifly.com




SOURCES & CREDITS :

   NOAA